Terminal Aerodrome Forecast
Issued by NWS

Home | Current Version | Previous Version | Text Only | Print | Product List | Glossary On
Versions: 1 2 3 4 5 6 7 8 9 10 11 12 13 14 15 16 17 18 19 20 21 22 23 24 25 26 27 28
000
FTUS45 KGJT 221138
TAFCNY
TAF
KCNY 221138Z 2212/2312 VRB03KT P6SM FEW100 BKN200
     FM221800 17007KT P6SM SCT100 BKN150
     FM222100 20010G18KT P6SM SCT100 BKN150
     FM230200 12010KT P6SM VCSH SCT080 BKN150
     FM230600 21007KT P6SM VCSH SCT070 BKN110=

USA.gov is the U.S. government's official web portal to all federal, state and local government web resources and services.